CheckWX is a tool to help pilots better visualize weather data.  It is not intended as a substitute for an official pre-flight weather briefing.

21:27:24 UTC

KASE TAF
Aspen-Pitkin Co / Sardy Field Airport
Aspen, Colorado, USA
KASE 232320Z 2400/2424 26016G32KT P6SM FEW080 SCT150 FM240100 26010G18KT P6SM SCT070 FM240400 25008KT P6SM FEW070 FM241300 36008KT P6SM VCSH BKN070 FM241800 34007KT P6SM VCSH SCT050 BKN070

May-24@
00:00 UTC

May-24 @ 00:00 UTC

May-24@
01:00 UTC

May-24 @ 01:00 UTC

TAF KASE 232320Z 2400/2424 26016G32KT P6SM FEW080 SCT150

Expired

Wind
  • 260° at 16 KTS
  • {Gusting to 32 KTS
Cloud Levels
  • Few at 8,000' AGL
  • Scattered at 15,000' AGL

May-24@
01:00 UTC

May-24 @ 01:00 UTC

May-24@
04:00 UTC

May-24 @ 04:00 UTC

FM240100 26010G18KT P6SM SCT070

Expired

Wind
  • 260° at 10 KTS
  • {Gusting to 18 KTS
Cloud Levels
  • Scattered at 7,000' AGL

May-24@
04:00 UTC

May-24 @ 04:00 UTC

May-24@
13:00 UTC

May-24 @ 13:00 UTC

FM240400 25008KT P6SM FEW070

Expired

Wind
  • 250° at 8 KTS
Cloud Levels
  • Few at 7,000' AGL

May-24@
13:00 UTC

May-24 @ 13:00 UTC

May-24@
18:00 UTC

May-24 @ 18:00 UTC

FM241300 36008KT P6SM VCSH BKN070

Expired

Wind
  • 360° at 8 KTS
Conditions
Area Showers
Cloud Levels
  • Broken at 7,000' AGL

May-24@
18:00 UTC

May-24 @ 18:00 UTC

May-25@
00:00 UTC

May-25 @ 00:00 UTC

FM241800 34007KT P6SM VCSH SCT050 BKN070

From

From Standard forecast or significant change

Wind
  • 340° at 7 KTS
Conditions
Area Showers
Cloud Levels
  • Scattered at 5,000' AGL
  • Broken at 7,000' AGL